Maersk Magellan — 9V6751 — position and weather

sailwx.info

Track history (hours):
 
Tides and Currents Weather Stations Pressure Air Temp Water Temp Dewpoint Dewpoint Depression Visibility Wind Speed Wind Dir Waves Ship Positions

Maersk Magellan

Last reported at 2014-Oct-25 05:34 UTC. Time now 2014-Oct-25 06:25 UTC.
Position N 53°48' E 000°39'.

; draft 8.2 m.

Type: Ship. MMSI: 566549000.

Date/timePositionNaut miles runAvg speedWind from/ knotsBaromVisibWave heightAir tempDewpointWater temp
2014-Oct-25 05:34N 53°48' E 000°39'1212.1
2014-Oct-25 04:33N 53°51' E 000°58'127 9.7
2014-Oct-24 15:26N 52°31' E 003°43'1112.0
2014-Oct-24 14:33N 52°31' E 004°01'1212.1
2014-Oct-24 13:33N 52°30' E 004°20'10 9.9
2014-Oct-24 12:34N 52°28' E 004°36'3 2.9
2014-Oct-24 11:34N 52°27' E 004°41'4 3.5
2014-Oct-24 10:32N 52°25' E 004°45'0 0.0
2014-Oct-24 09:32N 52°25' E 004°45'0 0.0
2014-Oct-24 08:32N 52°25' E 004°45'0 0.0
2014-Oct-24 07:32N 52°25' E 004°45'0 0.0
2014-Oct-24 06:32N 52°25' E 004°45'0 0.0
2014-Oct-24 05:32N 52°25' E 004°45'0 0.0
2014-Oct-24 04:32N 52°25' E 004°45'0 0.0
2014-Oct-24 03:32N 52°25' E 004°45'0 0.0
2014-Oct-24 02:32N 52°25' E 004°45'0 0.0
2014-Oct-24 01:32N 52°25' E 004°45'0 0.0
2014-Oct-24 00:32N 52°25' E 004°45'0 0.0
2014-Oct-23 23:32N 52°25' E 004°45'0 0.0
2014-Oct-23 22:29N 52°25' E 004°45'0 0.0
2014-Oct-23 21:32N 52°25' E 004°45'0 0.0
2014-Oct-23 20:32N 52°25' E 004°45'0 0.0
2014-Oct-23 19:32N 52°25' E 004°45'0 0.0
2014-Oct-23 18:32N 52°25' E 004°45'0 0.0
2014-Oct-23 17:32N 52°25' E 004°45'0 0.0
2014-Oct-23 16:32N 52°25' E 004°45'0 0.0
2014-Oct-23 15:29N 52°25' E 004°45'0 0.0
2014-Oct-23 14:32N 52°25' E 004°45'0 0.0
2014-Oct-23 13:32N 52°25' E 004°45'0 0.0
2014-Oct-23 12:32N 52°25' E 004°45'0 0.0
2014-Oct-23 11:32N 52°25' E 004°45'0 0.0
2014-Oct-23 10:32N 52°25' E 004°45'0 0.0
2014-Oct-23 09:32N 52°25' E 004°45'0 0.0
2014-Oct-23 08:29N 52°25' E 004°45'0 0.0
2014-Oct-23 07:32N 52°25' E 004°45'0 0.0
2014-Oct-23 06:32N 52°25' E 004°45'0 0.0
2014-Oct-23 05:32N 52°25' E 004°45'0 0.0
2014-Oct-23 04:29N 52°25' E 004°45'0 0.0
2014-Oct-23 03:32N 52°25' E 004°45'0 0.0
2014-Oct-23 02:32N 52°25' E 004°45'0 0.0
2014-Oct-23 01:32N 52°25' E 004°45'0 0.0
2014-Oct-23 00:32N 52°25' E 004°45'0 0.0
2014-Oct-22 23:32N 52°25' E 004°45'0 0.0
2014-Oct-22 22:32N 52°25' E 004°45'0 0.0
2014-Oct-22 21:32N 52°25' E 004°45'1 1.0
2014-Oct-22 20:33N 52°26' E 004°45'5 5.4
2014-Oct-22 19:33N 52°28' E 004°36'3 2.7
2014-Oct-22 18:34N 52°28' E 004°32'5 5.0
2014-Oct-22 17:33N 52°29' E 004°24'5 5.1
2014-Oct-22 16:33N 52°28' E 004°16'1 1.2
2014-Oct-22 15:33N 52°27' E 004°16'1 0.9
2014-Oct-22 14:33N 52°28' E 004°16'2 1.8
2014-Oct-22 13:33N 52°26' E 004°15'3 3.0
2014-Oct-22 12:33N 52°23' E 004°17'7 6.7
2014-Oct-22 11:33N 52°28' E 004°09'6 6.2
2014-Oct-22 10:33N 52°27' E 003°59'4 3.9
2014-Oct-22 09:33N 52°28' E 003°53'1 0.6
2014-Oct-22 08:17N 52°28' E 003°52'2 3.2
2014-Oct-22 07:33N 52°26' E 003°53'8 7.8
2014-Oct-22 06:33N 52°25' E 003°40'3 2.6
2014-Oct-22 05:33N 52°23' E 003°43'7 6.9
2014-Oct-22 04:33N 52°26' E 003°33'11 1.5
2014-Oct-21 21:24N 52°32' E 003°47'3 2.9
2014-Oct-21 20:27N 52°32' E 003°52'3 3.3
2014-Oct-21 19:33N 52°32' E 003°57'4 4.5
2014-Oct-21 18:33N 52°32' E 004°04'3 3.5
2014-Oct-21 17:33N 52°30' E 004°09'2 2.0
2014-Oct-21 16:33N 52°28' E 004°08'1 0.6
2014-Oct-21 15:32N 52°28' E 004°07'0 0.1
2014-Oct-21 14:32N 52°28' E 004°07'0 0.0
2014-Oct-21 13:32N 52°28' E 004°07'0 0.0
2014-Oct-21 12:32N 52°28' E 004°07'0 0.0
2014-Oct-21 11:32N 52°28' E 004°07'0 0.0
2014-Oct-21 10:32N 52°28' E 004°07'0 0.0
2014-Oct-21 09:32N 52°28' E 004°07'0 0.0
2014-Oct-21 08:32N 52°28' E 004°07'0 0.0
2014-Oct-21 07:32N 52°28' E 004°07'0 0.0
2014-Oct-21 06:32N 52°28' E 004°07'0 0.0
2014-Oct-21 05:32N 52°28' E 004°07'0 0.0
2014-Oct-21 04:32N 52°28' E 004°07'0 0.0
2014-Oct-21 03:32N 52°28' E 004°07'0 0.0
2014-Oct-21 02:32N 52°28' E 004°07'0 0.0
2014-Oct-21 01:32N 52°28' E 004°07'0 0.0
2014-Oct-21 00:32N 52°28' E 004°07'0 0.0
2014-Oct-20 23:32N 52°28' E 004°07'0 0.1
2014-Oct-20 22:32N 52°28' E 004°07'0 0.1
2014-Oct-20 21:32N 52°28' E 004°07'0 0.0
2014-Oct-20 20:32N 52°28' E 004°07'0 0.1
2014-Oct-20 19:32N 52°28' E 004°07'0 0.1
2014-Oct-20 18:29N 52°28' E 004°07'0 0.0
2014-Oct-20 17:32N 52°28' E 004°07'0 0.1
2014-Oct-20 16:32N 52°28' E 004°07'0 0.0
2014-Oct-20 15:32N 52°28' E 004°07'0 0.0
2014-Oct-20 14:32N 52°28' E 004°07'0 0.0
2014-Oct-20 13:32N 52°28' E 004°07'0 0.0
2014-Oct-20 12:29N 52°28' E 004°07'0 0.0
2014-Oct-20 11:32N 52°28' E 004°07'2 2.2
2014-Oct-20 10:33N 52°28' E 004°04'1010.1
2014-Oct-20 09:33N 52°26' E 003°48'135 8.9
2014-Oct-19 18:29N 53°51' E 000°54'1212.5
2014-Oct-19 17:33N 53°46' E 000°36'1110.7
2014-Oct-19 16:33N 53°39' E 000°22'1010.2
2014-Oct-19 15:34N 53°34' E 000°08'1111.1
2014-Oct-19 14:33N 53°38' W 000°10'0 0.3
2014-Oct-19 13:32N 53°38' W 000°10'0 0.0
2014-Oct-19 12:32N 53°38' W 000°10'0 0.0
2014-Oct-19 11:29N 53°38' W 000°10'0 0.0
2014-Oct-19 10:26N 53°38' W 000°10'0 0.0
2014-Oct-19 09:29N 53°38' W 000°10'0 0.0
2014-Oct-19 08:32N 53°38' W 000°10'0 0.0
2014-Oct-19 07:32N 53°38' W 000°10'0 0.0
2014-Oct-19 06:32N 53°38' W 000°10'0 0.0
2014-Oct-19 05:29N 53°38' W 000°10'0 0.0
2014-Oct-19 04:29N 53°38' W 000°10'0 0.0
2014-Oct-19 03:29N 53°38' W 000°10'0 0.0
2014-Oct-19 02:32N 53°38' W 000°10'0 0.0
2014-Oct-19 01:32N 53°38' W 000°10'0 0.0
2014-Oct-19 00:23N 53°38' W 000°10'0 0.0
2014-Oct-18 23:32N 53°38' W 000°10'0 0.0
2014-Oct-18 22:32N 53°38' W 000°10'0 0.0
2014-Oct-18 21:32N 53°38' W 000°10'0 0.0
2014-Oct-18 20:29N 53°38' W 000°10'0 0.0
2014-Oct-18 19:29N 53°38' W 000°10'0 0.0
2014-Oct-18 18:29N 53°38' W 000°10'0 0.0
2014-Oct-18 17:32N 53°38' W 000°10'0 0.0
2014-Oct-18 16:32N 53°38' W 000°10'0 0.0
2014-Oct-18 15:32N 53°38' W 000°10'0 0.0
2014-Oct-18 14:32N 53°38' W 000°10'0 0.0
2014-Oct-18 13:32N 53°38' W 000°10'0 0.0
2014-Oct-18 12:32N 53°38' W 000°10'0 0.0
2014-Oct-18 11:32N 53°38' W 000°10'0 0.0
2014-Oct-18 10:32N 53°38' W 000°10'0 0.0
2014-Oct-18 09:32N 53°38' W 000°10'0 0.0
2014-Oct-18 08:23N 53°38' W 000°10'0 0.0
2014-Oct-18 07:23N 53°38' W 000°10'0 0.0
2014-Oct-18 06:32N 53°38' W 000°10'0 0.0
2014-Oct-18 05:26N 53°38' W 000°10'0 0.0
2014-Oct-18 04:32N 53°38' W 000°10'0 0.0
2014-Oct-18 03:32N 53°38' W 000°10'0 0.0
2014-Oct-18 02:29N 53°38' W 000°10'0 0.0
2014-Oct-18 01:32N 53°38' W 000°10'0 0.0
2014-Oct-18 00:32N 53°38' W 000°10'0 0.0
2014-Oct-17 23:32N 53°38' W 000°10'0 0.0
2014-Oct-17 22:32N 53°38' W 000°10'0 0.0
2014-Oct-17 21:29N 53°38' W 000°10'0 0.0
2014-Oct-17 20:32N 53°38' W 000°10'0 0.0
2014-Oct-17 19:29N 53°38' W 000°10'0 0.0
2014-Oct-17 18:32N 53°38' W 000°10'0 0.0
2014-Oct-17 17:29N 53°38' W 000°10'0 0.0
2014-Oct-17 16:29N 53°38' W 000°10'0 0.0
2014-Oct-17 15:29N 53°38' W 000°10'0 0.0
2014-Oct-17 14:32N 53°38' W 000°10'0 0.0
2014-Oct-17 13:32N 53°38' W 000°10'0 0.0
2014-Oct-17 12:32N 53°38' W 000°10'0 0.0
2014-Oct-17 11:29N 53°38' W 000°10'0 0.0
2014-Oct-17 10:32N 53°38' W 000°10'0 0.0
2014-Oct-17 09:32N 53°38' W 000°10'0 0.0
2014-Oct-17 08:17N 53°38' W 000°10'0 0.0
2014-Oct-17 07:32N 53°38' W 000°10'0 0.0
2014-Oct-17 06:29N 53°38' W 000°10'0 0.0
2014-Oct-17 05:32N 53°38' W 000°10'0 0.0
2014-Oct-17 04:32N 53°38' W 000°10'0 0.0
2014-Oct-17 03:29N 53°38' W 000°10'0 0.0
2014-Oct-17 02:29N 53°38' W 000°10'0 0.0
2014-Oct-17 01:32N 53°38' W 000°10'0 0.0
2014-Oct-17 00:29N 53°38' W 000°10'0 0.1
2014-Oct-16 23:34N 53°38' W 000°10'6 6.3
2014-Oct-16 22:33N 53°37' E 000°01'10 9.7
2014-Oct-16 21:33N 53°34' E 000°16'7 7.3
2014-Oct-16 20:33N 53°40' E 000°24'2 2.4
2014-Oct-16 19:32N 53°38' E 000°23'0 0.0
2014-Oct-16 18:32N 53°38' E 000°23'0 0.2
2014-Oct-16 17:33N 53°38' E 000°23'6 6.1
2014-Oct-16 16:33N 53°43' E 000°29'7 6.8
2014-Oct-16 15:34N 53°47' E 000°38'9 8.9
2014-Oct-16 14:33N 53°51' E 000°52'1010.0
2014-Oct-16 13:33N 53°51' E 001°08'12312.2
2014-Oct-16 03:32N 54°03' E 004°36'1313.1
2014-Oct-16 02:32N 54°05' E 004°58'1312.7
2014-Oct-16 01:32N 54°06' E 005°20'1212.3
2014-Oct-16 00:31N 54°08' E 005°40'1212.0
2014-Oct-15 23:33N 54°10' E 006°00'1212.1
2014-Oct-15 22:33N 54°11' E 006°21'2612.9
2014-Oct-15 20:33N 54°12' E 007°05'1413.6
2014-Oct-15 19:33N 54°12' E 007°28'1313.0
2014-Oct-15 18:33N 54°07' E 007°48'1313.0
2014-Oct-15 17:33N 54°02' E 008°08'1 1.3
2014-Oct-15 16:33N 54°02' E 008°10'0 0.0
2014-Oct-15 15:33N 54°02' E 008°10'0 0.0
2014-Oct-15 14:33N 54°02' E 008°10'0 0.0
2014-Oct-15 13:33N 54°02' E 008°10'0 0.0
2014-Oct-15 12:33N 54°02' E 008°10'0 0.0
2014-Oct-15 11:33N 54°02' E 008°10'0 0.1
2014-Oct-15 10:33N 54°02' E 008°10'0 0.0
2014-Oct-15 09:33N 54°02' E 008°10'0 0.1
2014-Oct-15 08:33N 54°02' E 008°10'0 0.0
2014-Oct-15 07:33N 54°02' E 008°10'0 0.0
2014-Oct-15 06:33N 54°02' E 008°10'  
Track history (hours):
 
Tides and Currents Weather Stations Pressure Air Temp Water Temp Dewpoint Dewpoint Depression Visibility Wind Speed Wind Dir Waves Ship Positions

Maersk Magellan

Last reported at 2014-Oct-25 05:34 UTC. Time now 2014-Oct-25 06:25 UTC.
Position N 53°48' E 000°39'.

; draft 8.2 m.

Type: Ship. MMSI: 566549000.

Date/timePositionNaut miles runAvg speedWind from/ knotsBaromVisibWave heightAir tempDewpointWater temp
2014-Oct-25 05:34N 53°48' E 000°39'1212.1
2014-Oct-25 04:33N 53°51' E 000°58'127 9.7
2014-Oct-24 15:26N 52°31' E 003°43'1112.0
2014-Oct-24 14:33N 52°31' E 004°01'1212.1
2014-Oct-24 13:33N 52°30' E 004°20'10 9.9
2014-Oct-24 12:34N 52°28' E 004°36'3 2.9
2014-Oct-24 11:34N 52°27' E 004°41'4 3.5
2014-Oct-24 10:32N 52°25' E 004°45'0 0.0
2014-Oct-24 09:32N 52°25' E 004°45'0 0.0
2014-Oct-24 08:32N 52°25' E 004°45'0 0.0
2014-Oct-24 07:32N 52°25' E 004°45'0 0.0
2014-Oct-24 06:32N 52°25' E 004°45'0 0.0
2014-Oct-24 05:32N 52°25' E 004°45'0 0.0
2014-Oct-24 04:32N 52°25' E 004°45'0 0.0
2014-Oct-24 03:32N 52°25' E 004°45'0 0.0
2014-Oct-24 02:32N 52°25' E 004°45'0 0.0
2014-Oct-24 01:32N 52°25' E 004°45'0 0.0
2014-Oct-24 00:32N 52°25' E 004°45'0 0.0
2014-Oct-23 23:32N 52°25' E 004°45'0 0.0
2014-Oct-23 22:29N 52°25' E 004°45'0 0.0
2014-Oct-23 21:32N 52°25' E 004°45'0 0.0
2014-Oct-23 20:32N 52°25' E 004°45'0 0.0
2014-Oct-23 19:32N 52°25' E 004°45'0 0.0
2014-Oct-23 18:32N 52°25' E 004°45'0 0.0
2014-Oct-23 17:32N 52°25' E 004°45'0 0.0
2014-Oct-23 16:32N 52°25' E 004°45'0 0.0
2014-Oct-23 15:29N 52°25' E 004°45'0 0.0
2014-Oct-23 14:32N 52°25' E 004°45'0 0.0
2014-Oct-23 13:32N 52°25' E 004°45'0 0.0
2014-Oct-23 12:32N 52°25' E 004°45'0 0.0
2014-Oct-23 11:32N 52°25' E 004°45'0 0.0
2014-Oct-23 10:32N 52°25' E 004°45'0 0.0
2014-Oct-23 09:32N 52°25' E 004°45'0 0.0
2014-Oct-23 08:29N 52°25' E 004°45'0 0.0
2014-Oct-23 07:32N 52°25' E 004°45'0 0.0
2014-Oct-23 06:32N 52°25' E 004°45'0 0.0
2014-Oct-23 05:32N 52°25' E 004°45'0 0.0
2014-Oct-23 04:29N 52°25' E 004°45'0 0.0
2014-Oct-23 03:32N 52°25' E 004°45'0 0.0
2014-Oct-23 02:32N 52°25' E 004°45'0 0.0
2014-Oct-23 01:32N 52°25' E 004°45'0 0.0
2014-Oct-23 00:32N 52°25' E 004°45'0 0.0
2014-Oct-22 23:32N 52°25' E 004°45'0 0.0
2014-Oct-22 22:32N 52°25' E 004°45'0 0.0
2014-Oct-22 21:32N 52°25' E 004°45'1 1.0
2014-Oct-22 20:33N 52°26' E 004°45'5 5.4
2014-Oct-22 19:33N 52°28' E 004°36'3 2.7
2014-Oct-22 18:34N 52°28' E 004°32'5 5.0
2014-Oct-22 17:33N 52°29' E 004°24'5 5.1
2014-Oct-22 16:33N 52°28' E 004°16'1 1.2
2014-Oct-22 15:33N 52°27' E 004°16'1 0.9
2014-Oct-22 14:33N 52°28' E 004°16'2 1.8
2014-Oct-22 13:33N 52°26' E 004°15'3 3.0
2014-Oct-22 12:33N 52°23' E 004°17'7 6.7
2014-Oct-22 11:33N 52°28' E 004°09'6 6.2
2014-Oct-22 10:33N 52°27' E 003°59'4 3.9
2014-Oct-22 09:33N 52°28' E 003°53'1 0.6
2014-Oct-22 08:17N 52°28' E 003°52'2 3.2
2014-Oct-22 07:33N 52°26' E 003°53'8 7.8
2014-Oct-22 06:33N 52°25' E 003°40'3 2.6
2014-Oct-22 05:33N 52°23' E 003°43'7 6.9
2014-Oct-22 04:33N 52°26' E 003°33'11 1.5
2014-Oct-21 21:24N 52°32' E 003°47'3 2.9
2014-Oct-21 20:27N 52°32' E 003°52'3 3.3
2014-Oct-21 19:33N 52°32' E 003°57'4 4.5
2014-Oct-21 18:33N 52°32' E 004°04'3 3.5
2014-Oct-21 17:33N 52°30' E 004°09'2 2.0
2014-Oct-21 16:33N 52°28' E 004°08'1 0.6
2014-Oct-21 15:32N 52°28' E 004°07'0 0.1
2014-Oct-21 14:32N 52°28' E 004°07'0 0.0
2014-Oct-21 13:32N 52°28' E 004°07'0 0.0
2014-Oct-21 12:32N 52°28' E 004°07'0 0.0
2014-Oct-21 11:32N 52°28' E 004°07'0 0.0
2014-Oct-21 10:32N 52°28' E 004°07'0 0.0
2014-Oct-21 09:32N 52°28' E 004°07'0 0.0
2014-Oct-21 08:32N 52°28' E 004°07'0 0.0
2014-Oct-21 07:32N 52°28' E 004°07'0 0.0
2014-Oct-21 06:32N 52°28' E 004°07'0 0.0
2014-Oct-21 05:32N 52°28' E 004°07'0 0.0
2014-Oct-21 04:32N 52°28' E 004°07'0 0.0
2014-Oct-21 03:32N 52°28' E 004°07'0 0.0
2014-Oct-21 02:32N 52°28' E 004°07'0 0.0
2014-Oct-21 01:32N 52°28' E 004°07'0 0.0
2014-Oct-21 00:32N 52°28' E 004°07'0 0.0
2014-Oct-20 23:32N 52°28' E 004°07'0 0.1
2014-Oct-20 22:32N 52°28' E 004°07'0 0.1
2014-Oct-20 21:32N 52°28' E 004°07'0 0.0
2014-Oct-20 20:32N 52°28' E 004°07'0 0.1
2014-Oct-20 19:32N 52°28' E 004°07'0 0.1
2014-Oct-20 18:29N 52°28' E 004°07'0 0.0
2014-Oct-20 17:32N 52°28' E 004°07'0 0.1
2014-Oct-20 16:32N 52°28' E 004°07'0 0.0
2014-Oct-20 15:32N 52°28' E 004°07'0 0.0
2014-Oct-20 14:32N 52°28' E 004°07'0 0.0
2014-Oct-20 13:32N 52°28' E 004°07'0 0.0
2014-Oct-20 12:29N 52°28' E 004°07'0 0.0
2014-Oct-20 11:32N 52°28' E 004°07'2 2.2
2014-Oct-20 10:33N 52°28' E 004°04'1010.1
2014-Oct-20 09:33N 52°26' E 003°48'135 8.9
2014-Oct-19 18:29N 53°51' E 000°54'1212.5
2014-Oct-19 17:33N 53°46' E 000°36'1110.7
2014-Oct-19 16:33N 53°39' E 000°22'1010.2
2014-Oct-19 15:34N 53°34' E 000°08'1111.1
2014-Oct-19 14:33N 53°38' W 000°10'0 0.3
2014-Oct-19 13:32N 53°38' W 000°10'0 0.0
2014-Oct-19 12:32N 53°38' W 000°10'0 0.0
2014-Oct-19 11:29N 53°38' W 000°10'0 0.0
2014-Oct-19 10:26N 53°38' W 000°10'0 0.0
2014-Oct-19 09:29N 53°38' W 000°10'0 0.0
2014-Oct-19 08:32N 53°38' W 000°10'0 0.0
2014-Oct-19 07:32N 53°38' W 000°10'0 0.0
2014-Oct-19 06:32N 53°38' W 000°10'0 0.0
2014-Oct-19 05:29N 53°38' W 000°10'0 0.0
2014-Oct-19 04:29N 53°38' W 000°10'0 0.0
2014-Oct-19 03:29N 53°38' W 000°10'0 0.0
2014-Oct-19 02:32N 53°38' W 000°10'0 0.0
2014-Oct-19 01:32N 53°38' W 000°10'0 0.0
2014-Oct-19 00:23N 53°38' W 000°10'0 0.0
2014-Oct-18 23:32N 53°38' W 000°10'0 0.0
2014-Oct-18 22:32N 53°38' W 000°10'0 0.0
2014-Oct-18 21:32N 53°38' W 000°10'0 0.0
2014-Oct-18 20:29N 53°38' W 000°10'0 0.0
2014-Oct-18 19:29N 53°38' W 000°10'0 0.0
2014-Oct-18 18:29N 53°38' W 000°10'0 0.0
2014-Oct-18 17:32N 53°38' W 000°10'0 0.0
2014-Oct-18 16:32N 53°38' W 000°10'0 0.0
2014-Oct-18 15:32N 53°38' W 000°10'0 0.0
2014-Oct-18 14:32N 53°38' W 000°10'0 0.0
2014-Oct-18 13:32N 53°38' W 000°10'0 0.0
2014-Oct-18 12:32N 53°38' W 000°10'0 0.0
2014-Oct-18 11:32N 53°38' W 000°10'0 0.0
2014-Oct-18 10:32N 53°38' W 000°10'0 0.0
2014-Oct-18 09:32N 53°38' W 000°10'0 0.0
2014-Oct-18 08:23N 53°38' W 000°10'0 0.0
2014-Oct-18 07:23N 53°38' W 000°10'0 0.0
2014-Oct-18 06:32N 53°38' W 000°10'0 0.0
2014-Oct-18 05:26N 53°38' W 000°10'0 0.0
2014-Oct-18 04:32N 53°38' W 000°10'0 0.0
2014-Oct-18 03:32N 53°38' W 000°10'0 0.0
2014-Oct-18 02:29N 53°38' W 000°10'0 0.0
2014-Oct-18 01:32N 53°38' W 000°10'0 0.0
2014-Oct-18 00:32N 53°38' W 000°10'0 0.0
2014-Oct-17 23:32N 53°38' W 000°10'0 0.0
2014-Oct-17 22:32N 53°38' W 000°10'0 0.0
2014-Oct-17 21:29N 53°38' W 000°10'0 0.0
2014-Oct-17 20:32N 53°38' W 000°10'0 0.0
2014-Oct-17 19:29N 53°38' W 000°10'0 0.0
2014-Oct-17 18:32N 53°38' W 000°10'0 0.0
2014-Oct-17 17:29N 53°38' W 000°10'0 0.0
2014-Oct-17 16:29N 53°38' W 000°10'0 0.0
2014-Oct-17 15:29N 53°38' W 000°10'0 0.0
2014-Oct-17 14:32N 53°38' W 000°10'0 0.0
2014-Oct-17 13:32N 53°38' W 000°10'0 0.0
2014-Oct-17 12:32N 53°38' W 000°10'0 0.0
2014-Oct-17 11:29N 53°38' W 000°10'0 0.0
2014-Oct-17 10:32N 53°38' W 000°10'0 0.0
2014-Oct-17 09:32N 53°38' W 000°10'0 0.0
2014-Oct-17 08:17N 53°38' W 000°10'0 0.0
2014-Oct-17 07:32N 53°38' W 000°10'0 0.0
2014-Oct-17 06:29N 53°38' W 000°10'0 0.0
2014-Oct-17 05:32N 53°38' W 000°10'0 0.0
2014-Oct-17 04:32N 53°38' W 000°10'0 0.0
2014-Oct-17 03:29N 53°38' W 000°10'0 0.0
2014-Oct-17 02:29N 53°38' W 000°10'0 0.0
2014-Oct-17 01:32N 53°38' W 000°10'0 0.0
2014-Oct-17 00:29N 53°38' W 000°10'0 0.1
2014-Oct-16 23:34N 53°38' W 000°10'6 6.3
2014-Oct-16 22:33N 53°37' E 000°01'10 9.7
2014-Oct-16 21:33N 53°34' E 000°16'7 7.3
2014-Oct-16 20:33N 53°40' E 000°24'2 2.4
2014-Oct-16 19:32N 53°38' E 000°23'0 0.0
2014-Oct-16 18:32N 53°38' E 000°23'0 0.2
2014-Oct-16 17:33N 53°38' E 000°23'6 6.1
2014-Oct-16 16:33N 53°43' E 000°29'7 6.8
2014-Oct-16 15:34N 53°47' E 000°38'9 8.9
2014-Oct-16 14:33N 53°51' E 000°52'1010.0
2014-Oct-16 13:33N 53°51' E 001°08'12312.2
2014-Oct-16 03:32N 54°03' E 004°36'1313.1
2014-Oct-16 02:32N 54°05' E 004°58'1312.7
2014-Oct-16 01:32N 54°06' E 005°20'1212.3
2014-Oct-16 00:31N 54°08' E 005°40'1212.0
2014-Oct-15 23:33N 54°10' E 006°00'1212.1
2014-Oct-15 22:33N 54°11' E 006°21'2612.9
2014-Oct-15 20:33N 54°12' E 007°05'1413.6
2014-Oct-15 19:33N 54°12' E 007°28'1313.0
2014-Oct-15 18:33N 54°07' E 007°48'1313.0
2014-Oct-15 17:33N 54°02' E 008°08'1 1.3
2014-Oct-15 16:33N 54°02' E 008°10'0 0.0
2014-Oct-15 15:33N 54°02' E 008°10'0 0.0
2014-Oct-15 14:33N 54°02' E 008°10'0 0.0
2014-Oct-15 13:33N 54°02' E 008°10'0 0.0
2014-Oct-15 12:33N 54°02' E 008°10'0 0.0
2014-Oct-15 11:33N 54°02' E 008°10'0 0.1
2014-Oct-15 10:33N 54°02' E 008°10'0 0.0
2014-Oct-15 09:33N 54°02' E 008°10'0 0.1
2014-Oct-15 08:33N 54°02' E 008°10'0 0.0
2014-Oct-15 07:33N 54°02' E 008°10'0 0.0
2014-Oct-15 06:33N 54°02' E 008°10'  

Dump ship's entire track history